Cusick, Washington
Current Conditions -  °F | °C
As of 10:53 PM on Sunday 21 Dec 2014 (Local Time) from KDEW Reporting Station
Clear Clear  
Wind Chill: 31°   Ceiling: Unl
Heat Index: 37°   Visibility: 10mi
Dew Point: 34°   Wind: 8mph
Humidity: 89%   Direction: 180°S
Pressure: 29.94"   Gusts: NA
Location:  48.34°N, 117.3°W
Report Text: KDEW 220653Z AUTO 18007KT 10SM CLR 03/01 A2994 RMK AO2 SLP149 T00280011
Loading
Personal Weather Stations






























Interactive Weather Map New forecast layout! Learn more

10-Day Weather Forecast

Advertisements
Track Severe Weather on mobile